HomeCanadaDewdney East › History

Air Quality History for Dewdney East, Canada

Historical PM2.5 and AQI trend from monitoring stations near Dewdney East, Canada.

30
Current AQI
Good Station

Air Quality Index Station

321h

PM2.5 Station

321h · 1 station

Temperature GFS model

80pt

Precipitation GFS model

mm/day

Daily Summary Station

Date AQI Range PM2.5 avg Hours Stations
2026-09-05 18 2–30 4.4 µg/m³ 7h 1
2026-09-04 40 18–91 10.4 µg/m³ 14h 1
2026-09-03 34 8–57 8.3 µg/m³ 14h 2
2026-09-02 34 12–84 8.7 µg/m³ 15h 2
2026-09-01 29 12–51 7.0 µg/m³ 15h 2
2026-08-31 49 23–157 14.3 µg/m³ 19h 2
2026-08-30 58 23–248 22.6 µg/m³ 19h 2
2026-08-29 49 6–154 13.9 µg/m³ 19h 2
2026-08-28 55 18–157 16.0 µg/m³ 15h 2
2026-08-27 54 15–228 21.7 µg/m³ 17h 1
2026-08-26 42 19–97 12.1 µg/m³ 14h 1
2026-08-25 33 15–56 8.0 µg/m³ 17h 2
2026-08-24 60 13–264 29.2 µg/m³ 15h 1
2026-08-23 40 15–157 11.5 µg/m³ 19h 1
2026-08-22 40 8–65 10.0 µg/m³ 14h 2
2026-08-21 53 7–167 17.5 µg/m³ 19h 1
2026-08-20 49 5–132 13.7 µg/m³ 20h 1
2026-08-19 36 18–64 9.0 µg/m³ 11h 2
2026-08-18 39 7–97 11.2 µg/m³ 17h 2
2026-08-17 48 12–153 13.8 µg/m³ 17h 1
2026-08-16 44 24–61 11.5 µg/m³ 4h 2
Back to Dewdney East Air Quality